Time;durP1;ratioP1;P1;durP2;ratioP2;P2;SDS_P1;SDS_P2;PMS_P1;PMS_P2;Temp;Humidity;BMP_temperature;BMP_pressure;BME280_temperature;BME280_humidity;BME280_pressure;Samples;Min_cycle;Max_cycle;Signal;HPM_P1;HPM_P2
2023/10/09 00:03:37;;;;;;;15.43;7.37;;;;;;;;;;10467743;28;20082;-84
2023/10/09 00:08:39;;;;;;;18.07;7.77;;;;;;;;;;10485532;28;20526;-84
2023/10/09 00:13:50;;;;;;;14.47;6.90;;;;;;;;;;10484942;28;20648;-84
2023/10/09 00:18:53;;;;;;;15.37;7.83;;;;;;;;;;10467830;28;20032;-84
2023/10/09 00:23:59;;;;;;;14.50;7.40;;;;;;;;;;10466648;28;20041;-85
2023/10/09 00:29:05;;;;;;;14.88;7.45;;;;;;;;;;10485537;28;20043;-87
2023/10/09 00:34:06;;;;;;;15.85;7.07;;;;;;;;;;10485030;28;20085;-84
2023/10/09 00:39:20;;;;;;;16.40;7.20;;;;;;;;;;10484890;28;20127;-84
2023/10/09 00:44:21;;;;;;;16.10;7.67;;;;;;;;;;10466865;28;20635;-84
2023/10/09 00:49:22;;;;;;;14.47;7.27;;;;;;;;;;10484072;28;20113;-84
2023/10/09 00:54:27;;;;;;;18.33;8.70;;;;;;;;;;10465228;28;20040;-85
2023/10/09 00:59:29;;;;;;;19.27;11.45;;;;;;;;;;10466067;28;20064;-84
2023/10/09 01:04:36;;;;;;;21.57;11.20;;;;;;;;;;10466516;28;20038;-88
2023/10/09 01:09:38;;;;;;;24.97;10.63;;;;;;;;;;10484178;28;20235;-83
2023/10/09 01:14:42;;;;;;;21.43;9.70;;;;;;;;;;10483772;28;20094;-86
2023/10/09 01:19:44;;;;;;;16.87;8.77;;;;;;;;;;10483849;28;20023;-84
2023/10/09 01:24:48;;;;;;;22.60;11.27;;;;;;;;;;10467796;28;20035;-84
2023/10/09 01:29:50;;;;;;;18.37;8.17;;;;;;;;;;10473225;28;20064;-87
2023/10/09 01:34:51;;;;;;;17.50;8.97;;;;;;;;;;10491320;28;20016;-84
2023/10/09 01:39:57;;;;;;;25.43;13.30;;;;;;;;;;10472358;28;20036;-86
2023/10/09 01:45:09;;;;;;;16.33;8.00;;;;;;;;;;10490778;28;20028;-84
2023/10/09 01:50:20;;;;;;;28.30;15.03;;;;;;;;;;10491239;28;20064;-85
2023/10/09 01:55:39;;;;;;;22.63;12.10;;;;;;;;;;10490554;28;20032;-85
2023/10/09 02:00:49;;;;;;;28.73;15.60;;;;;;;;;;10490962;28;20477;-83
2023/10/09 02:05:51;;;;;;;22.57;11.43;;;;;;;;;;10488845;28;20042;-87
2023/10/09 02:10:55;;;;;;;25.70;13.57;;;;;;;;;;10489494;28;20049;-84
2023/10/09 02:16:13;;;;;;;24.00;11.60;;;;;;;;;;10489721;28;20039;-84
2023/10/09 02:21:14;;;;;;;25.83;13.10;;;;;;;;;;10479060;28;20066;-84
2023/10/09 02:31:22;;;;;;;29.23;15.23;;;;;;;;;;10488928;28;20052;-84
2023/10/09 02:36:24;;;;;;;23.23;12.13;;;;;;;;;;10488002;28;20032;-85
2023/10/09 02:41:34;;;;;;;28.33;15.07;;;;;;;;;;10487808;28;20085;-84
2023/10/09 02:46:35;;;;;;;25.77;11.87;;;;;;;;;;10486731;28;20032;-85
2023/10/09 02:51:42;;;;;;;28.27;14.40;;;;;;;;;;10468926;28;20029;-84
2023/10/09 02:56:43;;;;;;;21.90;13.30;;;;;;;;;;10469535;28;20060;-85
2023/10/09 03:01:44;;;;;;;29.77;15.63;;;;;;;;;;10487877;28;20086;-86
2023/10/09 03:07:06;;;;;;;29.37;15.37;;;;;;;;;;10488220;28;20037;-85
2023/10/09 03:12:12;;;;;;;23.30;12.33;;;;;;;;;;10458530;28;20139;-86
2023/10/09 03:17:13;;;;;;;29.83;14.20;;;;;;;;;;10465908;28;20032;-83
2023/10/09 03:22:14;;;;;;;23.37;11.97;;;;;;;;;;10468540;28;20317;-86
2023/10/09 03:27:15;;;;;;;26.70;14.27;;;;;;;;;;10487130;28;20119;-82
2023/10/09 03:32:16;;;;;;;24.03;11.73;;;;;;;;;;10487035;28;20089;-85
2023/10/09 03:37:36;;;;;;;25.97;13.77;;;;;;;;;;10487100;28;20024;-86
2023/10/09 03:42:39;;;;;;;26.97;13.30;;;;;;;;;;10486144;28;20516;-86
2023/10/09 03:47:48;;;;;;;34.03;14.83;;;;;;;;;;10483838;28;20102;-84
2023/10/09 03:52:50;;;;;;;29.27;15.50;;;;;;;;;;10468192;28;20032;-89
2023/10/09 03:57:51;;;;;;;30.00;14.70;;;;;;;;;;10484959;28;20376;-85
2023/10/09 04:02:52;;;;;;;23.97;11.70;;;;;;;;;;10467327;28;20028;-86
2023/10/09 04:07:56;;;;;;;24.13;11.17;;;;;;;;;;10485385;28;20041;-81
2023/10/09 04:12:58;;;;;;;33.67;15.90;;;;;;;;;;10483956;28;20130;-86
2023/10/09 04:18:00;;;;;;;27.63;14.37;;;;;;;;;;10486028;28;20029;-84
2023/10/09 04:23:06;;;;;;;28.60;15.57;;;;;;;;;;10466696;28;20059;-83
2023/10/09 04:38:34;;;;;;;;;;;;;;;;;;10486069;28;20119;-87
2023/10/09 04:43:35;;;;;;;31.80;17.60;;;;;;;;;;10485790;28;19908;-84
2023/10/09 04:48:39;;;;;;;34.90;19.63;;;;;;;;;;10485147;28;20033;-84
2023/10/09 04:53:50;;;;;;;36.70;17.83;;;;;;;;;;10485206;28;20028;-83
2023/10/09 04:59:03;;;;;;;31.97;16.93;;;;;;;;;;10487454;28;20035;-83
2023/10/09 05:04:15;;;;;;;32.83;17.50;;;;;;;;;;10493779;28;20468;-83
2023/10/09 05:09:23;;;;;;;38.43;21.10;;;;;;;;;;10492871;28;20036;-83
2023/10/09 05:14:38;;;;;;;34.23;18.80;;;;;;;;;;10490853;28;20055;-83
2023/10/09 05:19:42;;;;;;;36.23;17.73;;;;;;;;;;10492238;28;20035;-84
2023/10/09 05:24:46;;;;;;;33.40;17.20;;;;;;;;;;10492026;28;20147;-83
2023/10/09 05:29:59;;;;;;;33.47;17.93;;;;;;;;;;10491154;28;20025;-83
2023/10/09 05:51:10;;;;;;;31.93;16.73;;;;;;;;;;10491805;28;20203;-83
2023/10/09 06:06:56;;;;;;;17.10;9.80;;;;;;;;;;10489789;28;20488;-83
2023/10/09 06:12:33;;;;;;;20.30;9.43;;;;;;;;;;10488460;28;20064;-83
2023/10/09 06:17:24;;;;;;;18.43;10.37;;;;;;;;;;10489268;28;20166;-83
2023/10/09 06:27:59;;;;;;;18.90;9.13;;;;;;;;;;10430522;28;20075;-83
2023/10/09 06:33:57;;;;;;;19.07;8.80;;;;;;;;;;10471427;28;20043;-84
2023/10/09 06:38:40;;;;;;;18.10;9.33;;;;;;;;;;10485498;28;20035;-83
2023/10/09 06:43:47;;;;;;;20.40;9.57;;;;;;;;;;10476364;28;20028;-82
2023/10/09 06:48:57;;;;;;;15.00;8.23;;;;;;;;;;10488697;28;20556;-83
2023/10/09 06:54:03;;;;;;;16.03;8.27;;;;;;;;;;10489050;28;20028;-84
2023/10/09 06:59:21;;;;;;;13.38;6.03;;;;;;;;;;10488470;28;20031;-83
2023/10/09 07:10:28;;;;;;;10.27;5.83;;;;;;;;;;10487863;28;20408;-83
2023/10/09 07:25:15;;;;;;;13.20;5.93;;;;;;;;;;10486734;28;20107;-85
2023/10/09 07:40:56;;;;;;;8.47;5.10;;;;;;;;;;10486455;28;20089;-83
2023/10/09 07:50:58;;;;;;;7.90;4.20;;;;;;;;;;10485832;28;20409;-83
2023/10/09 07:56:06;;;;;;;7.97;4.30;;;;;;;;;;10486379;28;20034;-83
2023/10/09 08:01:22;;;;;;;9.27;4.87;;;;;;;;;;10486088;28;20049;-83
2023/10/09 08:06:38;;;;;;;10.45;4.93;;;;;;;;;;10455824;28;20066;-83
2023/10/09 08:16:42;;;;;;;18.43;9.30;;;;;;;;;;10485168;28;20025;-84
2023/10/09 08:22:07;;;;;;;23.87;17.13;;;;;;;;;;10485906;28;20486;-83
2023/10/09 08:38:33;;;;;;;13.07;6.30;;;;;;;;;;10471905;28;20037;-83
2023/10/09 08:43:36;;;;;;;13.23;6.77;;;;;;;;;;10457683;28;20025;-85
2023/10/09 08:48:39;;;;;;;10.90;5.87;;;;;;;;;;10484913;28;20142;-86
2023/10/09 08:53:43;;;;;;;10.63;5.03;;;;;;;;;;10484682;28;20438;-83
2023/10/09 08:58:44;;;;;;;12.00;5.70;;;;;;;;;;10485066;28;20362;-83
2023/10/09 09:03:45;;;;;;;6.70;4.30;;;;;;;;;;10484762;28;20025;-85
2023/10/09 09:08:46;;;;;;;13.47;7.43;;;;;;;;;;10484269;28;20028;-83
2023/10/09 09:13:48;;;;;;;11.17;6.63;;;;;;;;;;10482838;28;20114;-84
2023/10/09 09:18:51;;;;;;;10.40;6.97;;;;;;;;;;10452370;28;20036;-83
2023/10/09 09:24:01;;;;;;;14.00;9.10;;;;;;;;;;10483941;28;20883;-83
2023/10/09 09:29:03;;;;;;;18.57;8.33;;;;;;;;;;10465049;28;20052;-84
2023/10/09 09:34:12;;;;;;;10.73;6.27;;;;;;;;;;10484251;28;20044;-82
2023/10/09 09:39:19;;;;;;;18.00;8.23;;;;;;;;;;10483410;28;20454;-83
2023/10/09 09:44:21;;;;;;;16.03;8.17;;;;;;;;;;10484291;28;20028;-84
2023/10/09 09:49:23;;;;;;;14.57;7.23;;;;;;;;;;10490602;28;20568;-83
2023/10/09 09:54:24;;;;;;;11.33;7.07;;;;;;;;;;10491021;28;20025;-83
2023/10/09 09:59:29;;;;;;;13.93;4.73;;;;;;;;;;10491608;28;20529;-83
2023/10/09 10:04:35;;;;;;;17.57;9.33;;;;;;;;;;10490425;28;20055;-83
2023/10/09 10:09:41;;;;;;;11.48;5.13;;;;;;;;;;10471989;28;20303;-83
2023/10/09 10:15:08;;;;;;;14.15;5.95;;;;;;;;;;10488670;28;20492;-83
2023/10/09 10:20:42;;;;;;;5.33;3.33;;;;;;;;;;10490309;28;20499;-84
2023/10/09 10:25:41;;;;;;;5.63;3.97;;;;;;;;;;10486284;28;20028;-84
2023/10/09 10:30:46;;;;;;;11.07;4.15;;;;;;;;;;10489726;28;20032;-84
2023/10/09 10:35:52;;;;;;;4.90;3.05;;;;;;;;;;10489291;28;20273;-86
2023/10/09 10:41:00;;;;;;;;;;;;;;;;;;10489735;28;20074;-83
2023/10/09 10:46:13;;;;;;;6.67;3.70;;;;;;;;;;10470308;28;19919;-83
2023/10/09 10:51:14;;;;;;;11.40;6.67;;;;;;;;;;10489259;28;20032;-83
2023/10/09 11:01:17;;;;;;;10.93;5.03;;;;;;;;;;10487979;28;20687;-84
2023/10/09 11:06:37;;;;;;;9.53;5.40;;;;;;;;;;10470212;28;20040;-84
2023/10/09 11:11:46;;;;;;;6.03;4.13;;;;;;;;;;10468477;28;20048;-84
2023/10/09 11:16:47;;;;;;;8.37;4.73;;;;;;;;;;10487376;28;20654;-84
2023/10/09 11:21:58;;;;;;;65.53;43.67;;;;;;;;;;10468709;28;20024;-83
2023/10/09 11:27:32;;;;;;;28.60;18.43;;;;;;;;;;10487003;28;20127;-84
2023/10/09 11:33:29;;;;;;;25.53;14.40;;;;;;;;;;10466372;28;20152;-83
2023/10/09 11:38:37;;;;;;;11.43;6.47;;;;;;;;;;10447435;28;20072;-83
2023/10/09 11:44:05;;;;;;;10.07;5.80;;;;;;;;;;10468154;28;20027;-85
2023/10/09 11:54:33;;;;;;;23.27;15.20;;;;;;;;;;10486615;28;20488;-84
2023/10/09 11:59:52;;;;;;;17.77;12.03;;;;;;;;;;10469792;28;20017;-83
2023/10/09 12:05:01;;;;;;;41.00;23.77;;;;;;;;;;10487262;28;20080;-85
2023/10/09 12:10:10;;;;;;;29.17;22.00;;;;;;;;;;10486396;28;20040;-84
2023/10/09 12:15:17;;;;;;;56.60;39.33;;;;;;;;;;10485527;28;20133;-83
2023/10/09 12:20:30;;;;;;;58.63;37.87;;;;;;;;;;10465554;28;20032;-84
2023/10/09 12:25:31;;;;;;;57.77;40.27;;;;;;;;;;10462750;28;20099;-86
2023/10/09 12:30:39;;;;;;;85.60;46.17;;;;;;;;;;10464361;28;20538;-85
2023/10/09 12:35:59;;;;;;;118.57;59.92;;;;;;;;;;10475662;28;20101;-85
2023/10/09 12:41:28;;;;;;;56.83;32.37;;;;;;;;;;10428346;28;20044;-84
2023/10/09 12:46:37;;;;;;;33.57;20.13;;;;;;;;;;10437786;28;20025;-83
2023/10/09 12:51:40;;;;;;;27.60;16.67;;;;;;;;;;10483199;28;20032;-84
2023/10/09 12:56:41;;;;;;;31.17;16.77;;;;;;;;;;10483278;28;20035;-84
2023/10/09 13:01:42;;;;;;;28.30;18.93;;;;;;;;;;10483480;28;20036;-84
2023/10/09 13:06:44;;;;;;;32.40;17.90;;;;;;;;;;10483293;28;20024;-85
2023/10/09 13:11:48;;;;;;;26.00;16.00;;;;;;;;;;10482154;28;20055;-84
2023/10/09 13:16:52;;;;;;;82.10;36.10;;;;;;;;;;10450915;28;20068;-84
2023/10/09 13:21:53;;;;;;;50.83;31.87;;;;;;;;;;10465339;28;20032;-84
2023/10/09 13:26:58;;;;;;;48.20;30.30;;;;;;;;;;10466950;28;20041;-87
2023/10/09 13:32:02;;;;;;;45.97;32.33;;;;;;;;;;10462464;28;20614;-85
2023/10/09 13:37:11;;;;;;;29.37;19.87;;;;;;;;;;10485650;28;20151;-85
2023/10/09 13:42:12;;;;;;;43.23;28.90;;;;;;;;;;10489950;28;20028;-84
2023/10/09 13:47:19;;;;;;;36.43;24.67;;;;;;;;;;10480865;28;20531;-85
2023/10/09 13:52:21;;;;;;;39.97;27.50;;;;;;;;;;10444273;28;20090;-85
2023/10/09 13:57:31;;;;;;;36.03;23.60;;;;;;;;;;10460544;28;20120;-84
2023/10/09 14:02:32;;;;;;;69.93;39.10;;;;;;;;;;10490303;28;20055;-85
2023/10/09 14:07:34;;;;;;;34.47;23.53;;;;;;;;;;10466796;28;20037;-83
2023/10/09 14:12:40;;;;;;;30.40;19.33;;;;;;;;;;10465555;28;20063;-85
2023/10/09 14:17:42;;;;;;;52.33;25.33;;;;;;;;;;10457767;28;20075;-82
2023/10/09 14:22:45;;;;;;;64.20;30.10;;;;;;;;;;10486880;28;20036;-85
2023/10/09 14:27:48;;;;;;;41.17;24.43;;;;;;;;;;10463334;28;20040;-86
2023/10/09 14:32:55;;;;;;;87.47;44.40;;;;;;;;;;10483194;28;20036;-85
2023/10/09 14:37:57;;;;;;;70.93;35.33;;;;;;;;;;10482212;28;20059;-85
2023/10/09 14:42:58;;;;;;;54.50;30.60;;;;;;;;;;10470122;28;20475;-84
2023/10/09 14:53:38;;;;;;;71.50;40.70;;;;;;;;;;10474913;28;20029;-82
2023/10/09 14:59:11;;;;;;;45.67;26.93;;;;;;;;;;10476693;28;20493;-81
2023/10/09 15:04:36;;;;;;;52.90;28.20;;;;;;;;;;10477075;28;20468;-82
2023/10/09 15:09:54;;;;;;;33.33;19.37;;;;;;;;;;10482916;28;20529;-81
2023/10/09 15:15:13;;;;;;;44.00;24.77;;;;;;;;;;10484527;28;20056;-81
2023/10/09 15:20:20;;;;;;;47.67;27.87;;;;;;;;;;10484272;28;20506;-80
2023/10/09 15:25:26;;;;;;;44.17;25.80;;;;;;;;;;10445853;28;20096;-80
2023/10/09 15:30:51;;;;;;;41.33;24.00;;;;;;;;;;10480161;28;20069;-81
2023/10/09 15:35:59;;;;;;;45.47;26.70;;;;;;;;;;10450516;28;20035;-81
2023/10/09 15:41:00;;;;;;;53.90;30.53;;;;;;;;;;10480338;28;20534;-80
2023/10/09 15:46:01;;;;;;;77.57;49.37;;;;;;;;;;10480804;28;20028;-81
2023/10/09 15:51:02;;;;;;;76.20;45.47;;;;;;;;;;10480217;28;20016;-80
2023/10/09 15:56:04;;;;;;;66.83;42.80;;;;;;;;;;10476368;28;20036;-80
2023/10/09 16:01:07;;;;;;;53.77;36.73;;;;;;;;;;10465165;28;20017;-83
2023/10/09 16:06:11;;;;;;;68.10;46.97;;;;;;;;;;10487168;28;20051;-80
2023/10/09 16:11:17;;;;;;;53.60;35.97;;;;;;;;;;10466833;28;20028;-80
2023/10/09 16:16:25;;;;;;;55.15;30.75;;;;;;;;;;10465922;28;20110;-81
2023/10/09 16:21:26;;;;;;;47.10;28.63;;;;;;;;;;10475459;28;20032;-83
2023/10/09 16:26:28;;;;;;;42.37;24.97;;;;;;;;;;10479136;28;20107;-81
2023/10/09 16:31:35;;;;;;;41.07;25.83;;;;;;;;;;10474613;28;20093;-81
2023/10/09 16:36:36;;;;;;;45.90;28.63;;;;;;;;;;10479788;28;20521;-83
2023/10/09 16:41:37;;;;;;;54.07;30.30;;;;;;;;;;10459958;28;20020;-83
2023/10/09 16:46:39;;;;;;;42.90;26.33;;;;;;;;;;10471012;28;20037;-81
2023/10/09 16:51:44;;;;;;;46.27;27.17;;;;;;;;;;10483524;28;20036;-81
2023/10/09 16:56:53;;;;;;;38.33;23.33;;;;;;;;;;10479988;28;20517;-81
2023/10/09 17:01:54;;;;;;;42.10;24.27;;;;;;;;;;10489613;28;20039;-82
2023/10/09 17:06:58;;;;;;;40.23;24.17;;;;;;;;;;10476407;28;20036;-81
2023/10/09 17:12:00;;;;;;;42.73;25.77;;;;;;;;;;10479980;28;20404;-81
2023/10/09 17:17:01;;;;;;;46.00;24.97;;;;;;;;;;10487447;28;20040;-81
2023/10/09 17:22:10;;;;;;;46.20;26.50;;;;;;;;;;10486721;28;20064;-82
2023/10/09 17:27:17;;;;;;;55.57;27.37;;;;;;;;;;10484759;28;20136;-81
2023/10/09 17:32:18;;;;;;;65.77;29.97;;;;;;;;;;10482744;28;20112;-82
2023/10/09 17:37:22;;;;;;;54.63;29.57;;;;;;;;;;10473138;28;20045;-82
2023/10/09 17:42:24;;;;;;;47.03;26.03;;;;;;;;;;10480874;28;20033;-83
2023/10/09 17:47:26;;;;;;;63.80;32.23;;;;;;;;;;10485389;28;20040;-82
2023/10/09 17:52:34;;;;;;;63.73;30.10;;;;;;;;;;10474035;28;20036;-84
2023/10/09 17:57:36;;;;;;;64.27;31.00;;;;;;;;;;10483032;28;20099;-82
2023/10/09 18:02:39;;;;;;;73.03;34.27;;;;;;;;;;10490158;28;20541;-82
2023/10/09 18:07:44;;;;;;;60.83;29.63;;;;;;;;;;10488977;28;20031;-82
2023/10/09 18:12:45;;;;;;;73.87;32.70;;;;;;;;;;10477811;28;20041;-84
2023/10/09 18:17:46;;;;;;;61.83;27.97;;;;;;;;;;10455551;28;20725;-82
2023/10/09 18:22:47;;;;;;;71.57;30.23;;;;;;;;;;10487323;28;20029;-82
2023/10/09 18:27:50;;;;;;;65.10;29.97;;;;;;;;;;10488087;28;20037;-82
2023/10/09 18:32:59;;;;;;;58.17;26.67;;;;;;;;;;10488367;28;20078;-81
2023/10/09 18:38:00;;;;;;;52.33;27.13;;;;;;;;;;10487269;28;20582;-80
2023/10/09 18:43:04;;;;;;;56.17;27.90;;;;;;;;;;10487521;28;20044;-82
2023/10/09 18:48:10;;;;;;;64.10;32.50;;;;;;;;;;10465357;28;20044;-83
2023/10/09 18:53:17;;;;;;;51.37;26.37;;;;;;;;;;10477238;28;20032;-80
2023/10/09 18:58:19;;;;;;;60.07;26.90;;;;;;;;;;10487630;28;20668;-85
2023/10/09 19:03:20;;;;;;;51.37;25.93;;;;;;;;;;10488409;28;20029;-85
2023/10/09 19:08:21;;;;;;;44.73;24.27;;;;;;;;;;10486098;28;20131;-81
2023/10/09 19:13:23;;;;;;;49.07;25.90;;;;;;;;;;10482866;28;20131;-81
2023/10/09 19:18:24;;;;;;;38.07;22.07;;;;;;;;;;10487880;28;20016;-84
2023/10/09 19:23:25;;;;;;;51.97;25.77;;;;;;;;;;10483380;28;20090;-82
2023/10/09 19:28:26;;;;;;;50.37;26.63;;;;;;;;;;10487218;28;20036;-83
2023/10/09 19:33:27;;;;;;;55.43;26.53;;;;;;;;;;10482820;28;20108;-81
2023/10/09 19:38:28;;;;;;;63.10;28.93;;;;;;;;;;10483598;28;20158;-82
2023/10/09 19:43:29;;;;;;;47.23;25.60;;;;;;;;;;10480590;28;20157;-82
2023/10/09 19:48:34;;;;;;;42.17;22.77;;;;;;;;;;10484325;28;20040;-82
2023/10/09 19:53:36;;;;;;;39.80;23.33;;;;;;;;;;10476998;28;20035;-80
2023/10/09 19:58:40;;;;;;;66.57;31.23;;;;;;;;;;10484879;28;20024;-81
2023/10/09 20:03:44;;;;;;;57.57;27.00;;;;;;;;;;10486449;28;20036;-82
2023/10/09 20:08:47;;;;;;;69.37;31.67;;;;;;;;;;10498492;22;20498;-82
2023/10/09 20:13:49;;;;;;;43.80;24.87;;;;;;;;;;10468312;28;20654;-83
2023/10/09 20:18:54;;;;;;;53.23;28.43;;;;;;;;;;10485041;28;20033;-80
2023/10/09 20:23:55;;;;;;;58.97;28.27;;;;;;;;;;10473834;28;20044;-81
2023/10/09 20:28:56;;;;;;;57.17;28.73;;;;;;;;;;10484998;28;20040;-82
2023/10/09 20:33:57;;;;;;;45.47;25.17;;;;;;;;;;10498847;22;20064;-81
2023/10/09 20:38:58;;;;;;;41.97;23.97;;;;;;;;;;10475018;28;20024;-81
2023/10/09 20:43:59;;;;;;;40.57;22.17;;;;;;;;;;10498397;22;20561;-81
2023/10/09 20:49:00;;;;;;;66.23;33.70;;;;;;;;;;10483394;28;20040;-81
2023/10/09 20:54:01;;;;;;;57.73;29.77;;;;;;;;;;10466580;28;20051;-82
2023/10/09 20:59:05;;;;;;;71.27;32.90;;;;;;;;;;10482252;28;20111;-83
2023/10/09 21:04:08;;;;;;;43.13;22.90;;;;;;;;;;10484622;28;20032;-81
2023/10/09 21:09:11;;;;;;;52.53;28.50;;;;;;;;;;10483806;28;20063;-81
2023/10/09 21:14:12;;;;;;;55.33;30.07;;;;;;;;;;10484765;28;20032;-81
2023/10/09 21:19:13;;;;;;;46.03;25.30;;;;;;;;;;10480927;28;20376;-81
2023/10/09 21:24:14;;;;;;;43.00;23.83;;;;;;;;;;10498235;22;20105;-81
2023/10/09 21:29:15;;;;;;;51.97;28.87;;;;;;;;;;10469570;28;20048;-80
2023/10/09 21:34:16;;;;;;;61.57;31.63;;;;;;;;;;10464595;28;20025;-81
2023/10/09 21:39:17;;;;;;;60.03;30.10;;;;;;;;;;10463100;28;20457;-81
2023/10/09 21:44:18;;;;;;;57.37;29.77;;;;;;;;;;10469965;28;20029;-81
2023/10/09 21:49:20;;;;;;;51.20;27.67;;;;;;;;;;10449386;28;20464;-82
2023/10/09 21:54:21;;;;;;;66.20;36.63;;;;;;;;;;10449469;28;20040;-82
2023/10/09 21:59:22;;;;;;;54.27;29.13;;;;;;;;;;10476240;28;20031;-83
2023/10/09 22:04:25;;;;;;;60.50;31.13;;;;;;;;;;10460315;28;20029;-83
2023/10/09 22:09:26;;;;;;;47.93;24.67;;;;;;;;;;10462309;28;20120;-81
2023/10/09 22:14:28;;;;;;;54.17;27.47;;;;;;;;;;10449200;28;20120;-81
2023/10/09 22:19:35;;;;;;;63.23;30.63;;;;;;;;;;10442063;28;20050;-84
2023/10/09 22:24:39;;;;;;;59.10;31.43;;;;;;;;;;10448142;28;20063;-81
2023/10/09 22:29:41;;;;;;;52.97;27.57;;;;;;;;;;10461843;28;20084;-84
2023/10/09 22:34:41;;;;;;;74.67;35.43;;;;;;;;;;10464395;28;20028;-81
2023/10/09 22:39:44;;;;;;;61.13;32.23;;;;;;;;;;10435320;28;20434;-81
2023/10/09 22:44:47;;;;;;;63.03;32.50;;;;;;;;;;10471734;28;20359;-81
2023/10/09 22:49:52;;;;;;;69.50;35.57;;;;;;;;;;10457501;28;20453;-82
2023/10/09 22:54:54;;;;;;;59.77;30.83;;;;;;;;;;10471405;28;20131;-81
2023/10/09 23:00:02;;;;;;;50.70;27.43;;;;;;;;;;10461064;28;20037;-81
2023/10/09 23:05:04;;;;;;;49.47;26.87;;;;;;;;;;10472659;28;20020;-81
2023/10/09 23:10:15;;;;;;;52.10;28.37;;;;;;;;;;10469018;28;20040;-81
2023/10/09 23:15:35;;;;;;;72.17;37.13;;;;;;;;;;10453797;28;20468;-81
2023/10/09 23:20:50;;;;;;;61.70;31.47;;;;;;;;;;10452202;28;20797;-81
2023/10/09 23:26:05;;;;;;;53.87;29.83;;;;;;;;;;10445332;28;20083;-80
2023/10/09 23:36:26;;;;;;;46.03;26.53;;;;;;;;;;10446560;28;20057;-82
2023/10/09 23:41:27;;;;;;;47.43;25.87;;;;;;;;;;10483301;28;20033;-82
2023/10/09 23:46:30;;;;;;;45.40;25.07;;;;;;;;;;10459642;28;20037;-81
2023/10/09 23:51:31;;;;;;;43.73;25.27;;;;;;;;;;10485238;28;20036;-81
2023/10/09 23:56:42;;;;;;;42.90;24.67;;;;;;;;;;10451761;28;20512;-81
